createdAt,value
2022-10-15T00:01:48.724Z,18.70
2022-10-15T00:03:51.616Z,18.80
2022-10-15T00:05:54.626Z,18.80
2022-10-15T00:07:58.824Z,18.80
2022-10-15T00:10:01.643Z,18.70
2022-10-15T00:12:04.690Z,18.70
2022-10-15T00:14:07.567Z,18.70
2022-10-15T00:16:13.055Z,18.80
2022-10-15T00:18:15.904Z,18.80
2022-10-15T00:20:18.840Z,18.80
2022-10-15T00:22:22.022Z,18.80
2022-10-15T00:24:26.563Z,18.80
2022-10-15T00:26:30.658Z,18.80
2022-10-15T00:28:34.450Z,18.80
2022-10-15T00:30:37.448Z,18.80
2022-10-15T00:32:40.348Z,18.80
2022-10-15T00:34:43.248Z,18.80
2022-10-15T00:36:46.057Z,18.80
2022-10-15T00:38:49.257Z,18.80
2022-10-15T00:40:53.416Z,18.80
2022-10-15T00:42:56.231Z,18.80
2022-10-15T00:45:00.948Z,18.80
2022-10-15T00:47:14.194Z,18.80
2022-10-15T00:49:20.149Z,18.80
2022-10-15T00:51:25.997Z,18.80
2022-10-15T00:53:28.985Z,18.80
2022-10-15T00:55:34.978Z,18.80
2022-10-15T00:57:40.096Z,18.80
2022-10-15T00:59:45.448Z,18.70
2022-10-15T01:01:48.324Z,18.70
2022-10-15T01:03:51.155Z,18.70
2022-10-15T01:05:54.828Z,18.70
2022-10-15T01:07:57.666Z,18.80
2022-10-15T01:10:01.342Z,18.70
2022-10-15T01:12:05.825Z,18.70
2022-10-15T01:14:24.930Z,18.70
2022-10-15T01:16:37.255Z,18.70
2022-10-15T01:18:44.321Z,18.60
2022-10-15T01:21:01.344Z,18.70
2022-10-15T01:23:32.284Z,18.70
2022-10-15T01:25:45.657Z,18.70
2022-10-15T01:27:53.600Z,18.70
2022-10-15T01:30:25.905Z,18.70
2022-10-15T01:32:35.247Z,18.70
2022-10-15T01:34:48.345Z,18.70
2022-10-15T01:36:57.500Z,18.70
2022-10-15T01:39:07.504Z,18.60
2022-10-15T01:41:12.790Z,18.60
2022-10-15T01:45:31.645Z,18.60
2022-10-15T01:47:40.915Z,18.60
2022-10-15T01:49:46.461Z,18.60
2022-10-15T01:51:51.679Z,18.60
2022-10-15T01:53:55.299Z,18.60
2022-10-15T01:56:02.793Z,18.60
2022-10-15T01:58:06.997Z,18.50
2022-10-15T02:00:10.635Z,18.60
2022-10-15T02:02:14.121Z,18.50
2022-10-15T02:04:23.354Z,18.60
2022-10-15T02:06:31.416Z,18.60
2022-10-15T02:08:41.090Z,18.60
2022-10-15T02:10:49.935Z,18.60
2022-10-15T02:13:03.820Z,18.60
2022-10-15T02:15:12.914Z,18.50
2022-10-15T02:17:17.642Z,18.50
2022-10-15T02:19:28.404Z,18.50
2022-10-15T02:21:36.222Z,18.50
2022-10-15T02:23:47.613Z,18.50
2022-10-15T02:25:52.142Z,18.50
2022-10-15T02:27:57.918Z,18.50
2022-10-15T02:30:04.469Z,18.50
2022-10-15T02:32:08.258Z,18.50
2022-10-15T02:34:16.143Z,18.50
2022-10-15T02:36:21.340Z,18.50
2022-10-15T02:38:28.337Z,18.40
2022-10-15T02:40:35.473Z,18.50
2022-10-15T02:42:38.537Z,18.50
2022-10-15T02:44:41.330Z,18.50
2022-10-15T02:46:44.438Z,18.50
2022-10-15T02:48:47.273Z,18.50
2022-10-15T02:50:50.113Z,18.50
2022-10-15T02:52:54.284Z,18.50
2022-10-15T02:54:57.106Z,18.50
2022-10-15T02:56:59.967Z,18.50
2022-10-15T02:59:02.845Z,18.50
2022-10-15T03:01:06.127Z,18.50
2022-10-15T03:03:08.966Z,18.50
2022-10-15T03:05:12.110Z,18.40
2022-10-15T03:07:15.139Z,18.40
2022-10-15T03:09:19.468Z,18.40
2022-10-15T03:11:22.276Z,18.50
2022-10-15T03:13:25.121Z,18.50
2022-10-15T03:15:28.006Z,18.40
2022-10-15T03:17:30.786Z,18.40
2022-10-15T03:19:33.617Z,18.40
2022-10-15T03:21:36.451Z,18.40
2022-10-15T03:23:39.263Z,18.40
2022-10-15T03:25:43.397Z,18.40
2022-10-15T03:27:46.402Z,18.40
2022-10-15T03:29:49.174Z,18.40
2022-10-15T03:31:52.151Z,18.50
2022-10-15T03:33:54.945Z,18.40
2022-10-15T03:35:57.853Z,18.40
2022-10-15T03:38:00.718Z,18.40
2022-10-15T03:40:03.540Z,18.40
2022-10-15T03:42:07.747Z,18.40
2022-10-15T03:44:12.225Z,18.40
2022-10-15T03:46:15.796Z,18.40
2022-10-15T03:48:18.811Z,18.40
2022-10-15T03:50:21.652Z,18.40
2022-10-15T03:52:24.808Z,18.40
2022-10-15T03:54:27.822Z,18.40
2022-10-15T03:56:30.702Z,18.40
2022-10-15T03:58:34.894Z,18.30
2022-10-15T04:00:37.739Z,18.40
2022-10-15T04:02:40.609Z,18.40
2022-10-15T04:04:43.438Z,18.30
2022-10-15T04:06:47.872Z,18.30
2022-10-15T04:10:59.179Z,18.30
2022-10-15T04:13:02.055Z,18.40
2022-10-15T04:15:06.978Z,18.40
2022-10-15T04:17:09.894Z,18.40
2022-10-15T04:19:12.819Z,18.40
2022-10-15T04:21:15.709Z,18.40
2022-10-15T04:23:19.086Z,18.40
2022-10-15T04:25:21.890Z,18.40
2022-10-15T04:27:24.741Z,18.40
2022-10-15T04:29:27.679Z,18.40
2022-10-15T04:31:31.895Z,18.40
2022-10-15T04:33:34.730Z,18.40
2022-10-15T04:35:37.577Z,18.40
2022-10-15T04:37:40.392Z,18.40
2022-10-15T04:39:43.233Z,18.40
2022-10-15T04:41:46.116Z,18.40
2022-10-15T04:43:48.951Z,18.40
2022-10-15T04:45:51.808Z,18.40
2022-10-15T04:47:57.589Z,18.40
2022-10-15T04:50:00.402Z,18.40
2022-10-15T04:52:03.253Z,18.40
2022-10-15T04:54:06.409Z,18.40
2022-10-15T04:56:11.976Z,18.40
2022-10-15T04:58:15.102Z,18.40
2022-10-15T05:00:18.138Z,18.40
2022-10-15T05:02:21.166Z,18.40
2022-10-15T05:04:25.413Z,18.40
2022-10-15T05:06:28.412Z,18.30
2022-10-15T05:08:31.647Z,18.40
2022-10-15T05:10:34.444Z,18.30
2022-10-15T05:12:37.298Z,18.30
2022-10-15T05:14:40.116Z,18.30
2022-10-15T05:16:43.525Z,18.30
2022-10-15T05:18:47.814Z,18.30
2022-10-15T05:20:51.981Z,18.40
2022-10-15T05:22:54.785Z,18.30
2022-10-15T05:24:57.729Z,18.30
2022-10-15T05:27:02.967Z,18.30
2022-10-15T05:29:06.236Z,18.40
2022-10-15T05:31:14.754Z,18.40
2022-10-15T05:33:20.803Z,18.40
2022-10-15T05:35:24.686Z,18.40
2022-10-15T05:37:28.829Z,18.40
2022-10-15T05:39:31.642Z,18.40
2022-10-15T05:41:34.449Z,18.40
2022-10-15T05:43:40.374Z,18.40
2022-10-15T05:45:44.264Z,18.40
2022-10-15T05:47:47.121Z,18.40
2022-10-15T05:49:49.933Z,18.40
2022-10-15T05:51:52.834Z,18.40
2022-10-15T05:53:58.276Z,18.40
2022-10-15T05:56:01.195Z,18.40
2022-10-15T05:58:04.638Z,18.40
2022-10-15T06:00:08.729Z,18.40
2022-10-15T06:02:16.037Z,18.40
2022-10-15T06:04:18.963Z,18.40
2022-10-15T06:06:23.406Z,18.40
2022-10-15T06:08:26.271Z,18.40
2022-10-15T06:10:30.890Z,18.40
2022-10-15T06:12:33.752Z,18.40
2022-10-15T06:14:36.614Z,18.50
2022-10-15T06:16:39.447Z,18.50
2022-10-15T06:18:42.278Z,18.50
2022-10-15T06:20:45.782Z,18.50
2022-10-15T06:22:48.616Z,18.50
2022-10-15T06:24:51.433Z,18.50
2022-10-15T06:26:55.598Z,18.50
2022-10-15T06:28:59.443Z,18.50
2022-10-15T06:31:03.506Z,18.50
2022-10-15T06:33:06.349Z,18.50
2022-10-15T06:35:09.520Z,18.50
2022-10-15T06:37:12.404Z,18.50
2022-10-15T06:39:15.291Z,18.40
2022-10-15T06:41:18.417Z,18.40
2022-10-15T06:43:22.675Z,18.40
2022-10-15T06:45:25.529Z,18.40
2022-10-15T06:47:28.370Z,18.40
2022-10-15T06:49:31.282Z,18.50
2022-10-15T06:51:34.138Z,18.50
2022-10-15T06:53:40.449Z,18.50
2022-10-15T06:55:43.449Z,18.50
2022-10-15T06:57:46.349Z,18.50
2022-10-15T06:59:50.550Z,18.50
2022-10-15T07:01:53.341Z,18.60
2022-10-15T07:03:56.188Z,18.60
2022-10-15T07:06:04.417Z,18.60
2022-10-15T07:08:07.279Z,18.60
2022-10-15T07:10:10.591Z,18.60
2022-10-15T07:12:13.554Z,18.60
2022-10-15T07:14:16.470Z,18.70
2022-10-15T07:16:20.693Z,18.70
2022-10-15T07:18:23.560Z,18.70
2022-10-15T07:20:26.495Z,18.70
2022-10-15T07:22:29.364Z,18.70
2022-10-15T07:24:32.244Z,18.70
2022-10-15T07:26:35.079Z,18.70
2022-10-15T07:28:37.986Z,18.70
2022-10-15T07:30:41.049Z,18.70
2022-10-15T07:32:46.514Z,18.80
2022-10-15T07:34:49.662Z,18.80
2022-10-15T07:36:52.495Z,18.80
2022-10-15T07:38:55.370Z,18.80
2022-10-15T07:40:59.741Z,18.80
2022-10-15T07:43:02.596Z,18.90
2022-10-15T07:45:06.243Z,18.90
2022-10-15T07:47:09.265Z,18.90
2022-10-15T07:49:14.062Z,19.00
2022-10-15T07:53:22.700Z,19.10
2022-10-15T07:55:25.676Z,19.10
2022-10-15T07:57:28.508Z,19.10
2022-10-15T07:59:31.323Z,19.20
2022-10-15T08:01:34.170Z,19.20
2022-10-15T08:03:37.750Z,19.20
2022-10-15T08:05:41.937Z,19.20
2022-10-15T08:07:44.986Z,19.20
2022-10-15T08:09:47.810Z,19.20
2022-10-15T08:11:50.689Z,19.20
2022-10-15T08:13:54.470Z,19.30
2022-10-15T08:16:00.241Z,19.30
2022-10-15T08:18:03.334Z,19.30
2022-10-15T08:20:07.263Z,19.30
2022-10-15T08:22:12.496Z,19.30
2022-10-15T08:24:15.472Z,19.30
2022-10-15T08:26:18.359Z,19.30
2022-10-15T08:28:21.361Z,19.30
2022-10-15T08:30:24.332Z,19.40
2022-10-15T08:32:27.284Z,19.40
2022-10-15T08:34:30.129Z,19.50
2022-10-15T08:36:33.006Z,19.70
2022-10-15T08:38:37.201Z,19.80
2022-10-15T08:40:42.286Z,19.90
2022-10-15T08:42:47.153Z,20.00
2022-10-15T08:44:55.223Z,20.00
2022-10-15T08:47:03.418Z,20.00
2022-10-15T08:49:07.213Z,20.10
2022-10-15T08:51:13.378Z,20.10
2022-10-15T08:53:20.343Z,20.00
2022-10-15T08:57:39.232Z,20.00
2022-10-15T08:59:47.534Z,20.00
2022-10-15T09:01:55.308Z,20.10
2022-10-15T09:04:07.911Z,20.10
2022-10-15T09:06:16.835Z,20.10
2022-10-15T09:08:27.115Z,20.10
2022-10-15T09:10:37.146Z,20.10
2022-10-15T09:12:49.498Z,20.10
2022-10-15T09:14:55.682Z,20.20
2022-10-15T09:17:02.735Z,20.30
2022-10-15T09:19:12.705Z,20.40
2022-10-15T09:21:16.251Z,20.50
2022-10-15T09:23:22.058Z,20.60
2022-10-15T09:25:27.596Z,20.50
2022-10-15T09:27:36.382Z,20.60
2022-10-15T09:29:47.625Z,20.70
2022-10-15T09:31:59.524Z,20.80
2022-10-15T09:34:06.826Z,20.90
2022-10-15T09:36:20.988Z,20.90
2022-10-15T09:38:36.437Z,21.00
2022-10-15T09:40:53.928Z,21.00
2022-10-15T09:43:01.074Z,21.00
2022-10-15T09:45:07.433Z,21.00
2022-10-15T09:47:19.258Z,21.00
2022-10-15T09:49:25.402Z,21.10
2022-10-15T09:51:35.503Z,21.10
2022-10-15T09:53:48.169Z,21.30
2022-10-15T09:55:55.937Z,21.30
2022-10-15T09:58:04.910Z,21.30
2022-10-15T10:00:11.717Z,21.40
2022-10-15T10:02:21.363Z,21.40
2022-10-15T10:04:27.979Z,21.30
2022-10-15T10:06:30.871Z,21.20
2022-10-15T10:08:36.848Z,21.20
2022-10-15T10:10:42.982Z,21.20
2022-10-15T10:12:49.052Z,21.10
2022-10-15T10:14:58.673Z,21.20
2022-10-15T10:17:13.693Z,21.20
2022-10-15T10:19:18.069Z,21.00
2022-10-15T10:21:26.542Z,20.90
2022-10-15T10:23:34.885Z,21.00
2022-10-15T10:25:42.387Z,21.10
2022-10-15T10:27:46.886Z,21.20
2022-10-15T10:29:56.914Z,21.00
2022-10-15T10:31:59.767Z,21.20
2022-10-15T10:34:04.319Z,21.20
2022-10-15T10:38:23.397Z,21.30
2022-10-15T10:40:29.681Z,21.40
2022-10-15T10:42:34.892Z,21.50
2022-10-15T10:44:40.197Z,21.50
2022-10-15T10:46:46.883Z,21.60
2022-10-15T10:48:51.781Z,21.60
2022-10-15T10:51:16.674Z,21.60
2022-10-15T10:53:24.163Z,21.40
2022-10-15T10:55:35.208Z,21.40
2022-10-15T10:57:45.075Z,21.50
2022-10-15T10:59:52.992Z,21.50
2022-10-15T11:01:57.645Z,21.60
2022-10-15T11:04:00.610Z,21.60
2022-10-15T11:06:24.541Z,21.70
2022-10-15T11:08:33.887Z,21.80
2022-10-15T11:10:43.244Z,21.80
2022-10-15T11:12:56.997Z,21.80
2022-10-15T11:15:11.283Z,21.80
2022-10-15T11:17:25.330Z,21.80
2022-10-15T11:19:59.667Z,21.70
2022-10-15T11:22:21.287Z,21.80
2022-10-15T11:24:42.472Z,21.70
2022-10-15T11:27:11.180Z,21.80
2022-10-15T11:29:21.862Z,21.90
2022-10-15T11:31:34.298Z,21.90
2022-10-15T11:33:59.660Z,21.90
2022-10-15T11:36:19.778Z,21.90
2022-10-15T11:38:31.528Z,21.80
2022-10-15T11:40:44.578Z,21.90
2022-10-15T11:42:54.503Z,21.90
2022-10-15T11:45:28.379Z,22.00
2022-10-15T11:47:45.541Z,22.00
2022-10-15T11:50:04.566Z,21.90
2022-10-15T11:52:21.587Z,21.90
2022-10-15T11:54:30.068Z,22.00
2022-10-15T11:56:38.922Z,22.10
2022-10-15T11:58:46.656Z,22.30
2022-10-15T12:00:52.869Z,22.40
2022-10-15T12:02:57.068Z,22.40
2022-10-15T12:05:05.948Z,22.30
2022-10-15T12:07:16.747Z,22.30
2022-10-15T12:09:26.417Z,22.30
2022-10-15T12:11:40.735Z,22.30
2022-10-15T12:13:52.714Z,22.30
2022-10-15T12:16:03.506Z,22.30
2022-10-15T12:18:15.023Z,22.30
2022-10-15T12:20:21.707Z,22.30
2022-10-15T12:22:37.761Z,22.40
2022-10-15T12:24:54.880Z,22.40
2022-10-15T12:26:57.946Z,22.40
2022-10-15T12:29:03.189Z,22.40
2022-10-15T12:31:07.397Z,22.40
2022-10-15T12:33:26.684Z,22.40
2022-10-15T12:35:36.149Z,22.40
2022-10-15T12:37:39.157Z,22.50
2022-10-15T12:39:52.265Z,22.50
2022-10-15T12:41:55.865Z,22.50
2022-10-15T12:44:07.360Z,22.50
2022-10-15T12:46:11.820Z,22.50
2022-10-15T12:48:22.200Z,22.40
2022-10-15T12:50:26.896Z,22.30
2022-10-15T12:52:54.682Z,22.40
2022-10-15T12:55:21.650Z,22.40
2022-10-15T12:58:01.273Z,22.40
2022-10-15T13:00:25.673Z,22.40
2022-10-15T13:02:38.938Z,22.40
2022-10-15T13:04:42.998Z,22.40
2022-10-15T13:06:46.105Z,22.40
2022-10-15T13:08:52.738Z,22.30
2022-10-15T13:10:58.840Z,22.20
2022-10-15T13:13:04.744Z,22.20
2022-10-15T13:15:12.345Z,22.20
2022-10-15T13:17:17.166Z,22.20
2022-10-15T13:19:21.526Z,22.20
2022-10-15T13:21:45.581Z,22.20
2022-10-15T13:23:51.394Z,22.20
2022-10-15T13:25:54.891Z,22.30
2022-10-15T13:27:57.827Z,22.30
2022-10-15T13:30:02.307Z,22.20
2022-10-15T13:32:14.320Z,22.20
2022-10-15T13:34:26.000Z,22.20
2022-10-15T13:36:32.268Z,22.20
2022-10-15T13:38:36.650Z,22.20
2022-10-15T13:40:41.538Z,22.20
2022-10-15T13:43:00.196Z,22.20
2022-10-15T13:45:04.867Z,22.30
2022-10-15T13:47:25.771Z,22.30
2022-10-15T13:49:28.982Z,22.30
2022-10-15T13:51:35.704Z,22.30
2022-10-15T13:53:42.370Z,22.30
2022-10-15T13:55:49.209Z,22.30
2022-10-15T13:57:58.036Z,22.20
2022-10-15T14:00:00.885Z,22.10
2022-10-15T14:02:04.468Z,22.10
2022-10-15T14:04:17.382Z,22.10
2022-10-15T14:06:22.555Z,22.00
2022-10-15T14:08:28.953Z,22.10
2022-10-15T14:10:32.418Z,22.10
2022-10-15T14:12:36.575Z,22.00
2022-10-15T14:14:44.251Z,22.10
2022-10-15T14:16:49.463Z,22.00
2022-10-15T14:19:10.760Z,21.90
2022-10-15T14:21:15.104Z,21.90
2022-10-15T14:23:23.136Z,21.90
2022-10-15T14:25:27.304Z,21.90
2022-10-15T14:27:30.642Z,21.90
2022-10-15T14:29:41.034Z,21.90
2022-10-15T14:31:48.242Z,21.90
2022-10-15T14:33:53.543Z,21.80
2022-10-15T14:36:06.440Z,21.80
2022-10-15T14:38:17.900Z,21.80
2022-10-15T14:40:22.455Z,21.80
2022-10-15T14:42:29.019Z,21.90
2022-10-15T14:44:47.667Z,21.90
2022-10-15T14:46:53.031Z,21.90
2022-10-15T14:48:55.897Z,21.90
2022-10-15T14:51:00.361Z,21.80
2022-10-15T14:53:08.283Z,21.70
2022-10-15T14:55:17.259Z,21.80
2022-10-15T14:57:24.353Z,21.80
2022-10-15T14:59:33.656Z,21.80
2022-10-15T15:01:37.977Z,21.80
2022-10-15T15:03:42.584Z,21.80
2022-10-15T15:05:47.071Z,21.80
2022-10-15T15:07:49.923Z,21.80
2022-10-15T15:09:53.144Z,21.80
2022-10-15T15:11:55.994Z,21.80
2022-10-15T15:13:59.124Z,21.70
2022-10-15T15:16:03.810Z,21.80
2022-10-15T15:18:10.209Z,21.80
2022-10-15T15:20:13.710Z,21.70
2022-10-15T15:22:19.785Z,21.80
2022-10-15T15:24:22.705Z,21.70
2022-10-15T15:26:25.639Z,21.70
2022-10-15T15:28:29.591Z,21.70
2022-10-15T15:30:34.314Z,21.70
2022-10-15T15:32:37.170Z,21.70
2022-10-15T15:34:41.290Z,21.70
2022-10-15T15:36:44.148Z,21.70
2022-10-15T15:38:46.985Z,21.60
2022-10-15T15:40:50.654Z,21.60
2022-10-15T15:42:53.777Z,21.50
2022-10-15T15:44:56.608Z,21.60
2022-10-15T15:46:59.479Z,21.50
2022-10-15T15:49:02.315Z,21.50
2022-10-15T15:51:14.823Z,21.50
2022-10-15T15:53:17.641Z,21.40
2022-10-15T15:55:20.471Z,21.40
2022-10-15T15:57:23.684Z,21.40
2022-10-15T15:59:26.763Z,21.30
2022-10-15T16:01:29.621Z,21.30
2022-10-15T16:03:32.464Z,21.20
2022-10-15T16:05:35.385Z,21.30
2022-10-15T16:07:39.703Z,21.30
2022-10-15T16:09:42.725Z,21.30
2022-10-15T16:11:46.094Z,21.20
2022-10-15T16:13:48.930Z,21.20
2022-10-15T16:15:51.755Z,21.20
2022-10-15T16:17:55.557Z,21.20
2022-10-15T16:19:58.424Z,21.20
2022-10-15T16:22:01.249Z,21.20
2022-10-15T16:24:06.153Z,21.20
2022-10-15T16:26:09.334Z,21.20
2022-10-15T16:28:12.421Z,21.20
2022-10-15T16:30:15.360Z,21.20
2022-10-15T16:32:18.325Z,21.20
2022-10-15T16:34:21.210Z,21.20
2022-10-15T16:36:24.045Z,21.20
2022-10-15T16:38:26.903Z,21.10
2022-10-15T16:40:31.134Z,21.20
2022-10-15T16:42:33.997Z,21.20
2022-10-15T16:44:36.866Z,21.20
2022-10-15T16:46:39.715Z,21.10
2022-10-15T16:48:42.851Z,21.10
2022-10-15T16:50:45.710Z,21.10
2022-10-15T16:52:48.566Z,21.10
2022-10-15T16:54:51.433Z,21.00
2022-10-15T16:56:55.725Z,21.00
2022-10-15T16:58:59.123Z,21.10
2022-10-15T17:01:02.488Z,21.10
2022-10-15T17:03:05.414Z,21.00
2022-10-15T17:05:09.448Z,21.10
2022-10-15T17:07:12.329Z,21.00
2022-10-15T17:09:15.767Z,21.00
2022-10-15T17:11:20.914Z,21.10
2022-10-15T17:13:25.151Z,21.00
2022-10-15T17:15:28.068Z,21.00
2022-10-15T17:17:30.857Z,20.90
2022-10-15T17:19:34.325Z,20.90
2022-10-15T17:21:38.085Z,21.00
2022-10-15T17:23:41.623Z,20.90
2022-10-15T17:25:44.462Z,20.90
2022-10-15T17:27:47.304Z,20.90
2022-10-15T17:29:51.493Z,20.90
2022-10-15T17:31:54.343Z,20.90
2022-10-15T17:33:58.534Z,20.90
2022-10-15T17:36:05.494Z,20.80
2022-10-15T17:38:08.334Z,20.80
2022-10-15T17:40:12.092Z,20.80
2022-10-15T17:42:16.018Z,20.80
2022-10-15T17:44:19.067Z,20.80
2022-10-15T17:46:25.580Z,20.80
2022-10-15T17:48:28.944Z,20.80
2022-10-15T17:50:31.767Z,20.80
2022-10-15T17:52:34.981Z,20.70
2022-10-15T17:54:37.810Z,20.80
2022-10-15T17:56:40.633Z,20.70
2022-10-15T17:58:43.814Z,20.70
2022-10-15T18:00:53.163Z,20.70
2022-10-15T18:02:57.918Z,20.70
2022-10-15T18:05:00.828Z,20.70
2022-10-15T18:07:03.761Z,20.70
2022-10-15T18:09:06.590Z,20.70
2022-10-15T18:11:10.586Z,20.70
2022-10-15T18:13:13.977Z,20.70
2022-10-15T18:15:16.972Z,20.60
2022-10-15T18:17:19.839Z,20.60
2022-10-15T18:19:25.735Z,20.60
2022-10-15T18:21:29.043Z,20.60
2022-10-15T18:25:40.607Z,20.50
2022-10-15T18:27:43.760Z,20.50
2022-10-15T18:29:46.563Z,20.50
2022-10-15T18:31:53.420Z,20.50
2022-10-15T18:33:59.285Z,20.40
2022-10-15T18:36:08.534Z,20.40
2022-10-15T18:38:11.458Z,20.40
2022-10-15T18:40:14.348Z,20.40
2022-10-15T18:42:17.233Z,20.40
2022-10-15T18:44:21.514Z,20.40
2022-10-15T18:46:25.074Z,20.40
2022-10-15T18:48:32.133Z,20.40
2022-10-15T18:50:36.329Z,20.40
2022-10-15T18:52:42.140Z,20.40
2022-10-15T18:54:45.212Z,20.40
2022-10-15T18:56:48.240Z,20.40
2022-10-15T18:58:52.433Z,20.50
2022-10-15T19:00:55.347Z,20.50
2022-10-15T19:02:58.533Z,20.50
2022-10-15T19:05:01.603Z,20.60
2022-10-15T19:07:04.733Z,20.50
2022-10-15T19:09:13.799Z,20.60
2022-10-15T19:11:17.903Z,20.60
2022-10-15T19:13:20.734Z,20.50
2022-10-15T19:15:23.736Z,20.50
2022-10-15T19:17:28.011Z,20.50
2022-10-15T19:19:32.953Z,20.50
2022-10-15T19:21:37.526Z,20.50
2022-10-15T19:23:40.433Z,20.50
2022-10-15T19:25:44.896Z,20.50
2022-10-15T19:27:48.580Z,20.40
2022-10-15T19:29:51.478Z,20.40
2022-10-15T19:31:55.314Z,20.40
2022-10-15T19:33:59.044Z,20.40
2022-10-15T19:36:02.327Z,20.40
2022-10-15T19:38:05.307Z,20.40
2022-10-15T19:40:09.928Z,20.30
2022-10-15T19:42:14.265Z,20.40
2022-10-15T19:44:20.032Z,20.30
2022-10-15T19:46:22.974Z,20.30
2022-10-15T19:48:25.765Z,20.40
2022-10-15T19:50:28.650Z,20.40
2022-10-15T19:52:31.442Z,20.40
2022-10-15T19:54:34.284Z,20.40
2022-10-15T19:56:37.296Z,20.30
2022-10-15T19:58:41.502Z,20.30
2022-10-15T20:00:49.607Z,20.30
2022-10-15T20:02:52.595Z,20.30
2022-10-15T20:04:56.632Z,20.30
2022-10-15T20:06:59.494Z,20.30
2022-10-15T20:09:02.433Z,20.30
2022-10-15T20:11:07.214Z,20.30
2022-10-15T20:13:10.272Z,20.40
2022-10-15T20:15:14.525Z,20.40
2022-10-15T20:17:17.427Z,20.40
2022-10-15T20:19:21.817Z,20.40
2022-10-15T20:21:24.933Z,20.40
2022-10-15T20:23:28.541Z,20.40
2022-10-15T20:25:31.816Z,20.40
2022-10-15T20:27:34.843Z,20.40
2022-10-15T20:29:37.714Z,20.40
2022-10-15T20:31:42.088Z,20.40
2022-10-15T20:33:45.640Z,20.40
2022-10-15T20:35:50.500Z,20.40
2022-10-15T20:37:53.331Z,20.50
2022-10-15T20:42:00.011Z,20.40
2022-10-15T20:44:03.296Z,20.40
2022-10-15T20:46:09.929Z,20.40
2022-10-15T20:48:22.242Z,20.40
2022-10-15T20:50:29.296Z,20.40
2022-10-15T20:52:32.356Z,20.30
2022-10-15T20:54:36.059Z,20.30
2022-10-15T20:56:39.368Z,20.30
2022-10-15T20:58:42.233Z,20.30
2022-10-15T21:00:45.134Z,20.20
2022-10-15T21:02:48.015Z,20.20
2022-10-15T21:04:53.358Z,20.20
2022-10-15T21:06:57.248Z,20.20
2022-10-15T21:09:00.284Z,20.20
2022-10-15T21:11:03.999Z,20.20
2022-10-15T21:13:07.023Z,20.20
2022-10-15T21:15:10.425Z,20.20
2022-10-15T21:17:13.627Z,20.20
2022-10-15T21:19:16.710Z,20.20
2022-10-15T21:21:21.191Z,20.20
2022-10-15T21:23:24.039Z,20.20
2022-10-15T21:25:27.060Z,20.20
2022-10-15T21:27:29.932Z,20.20
2022-10-15T21:29:32.798Z,20.20
2022-10-15T21:31:35.632Z,20.20
2022-10-15T21:33:38.807Z,20.20
2022-10-15T21:35:41.639Z,20.20
2022-10-15T21:37:45.853Z,20.20
2022-10-15T21:39:48.738Z,20.20
2022-10-15T21:41:51.538Z,20.20
2022-10-15T21:43:54.478Z,20.20
2022-10-15T21:45:57.295Z,20.30
2022-10-15T21:48:00.174Z,20.20
2022-10-15T21:50:03.020Z,20.30
2022-10-15T21:52:06.042Z,20.30
2022-10-15T21:54:10.507Z,20.20
2022-10-15T21:56:13.791Z,20.20
2022-10-15T21:58:16.651Z,20.20
2022-10-15T22:00:19.707Z,20.20
2022-10-15T22:02:22.545Z,20.20
2022-10-15T22:04:25.465Z,20.30
2022-10-15T22:06:28.799Z,20.30
2022-10-15T22:08:31.808Z,20.30
2022-10-15T22:10:36.764Z,20.30
2022-10-15T22:12:39.563Z,20.20
2022-10-15T22:14:42.577Z,20.20
2022-10-15T22:16:45.546Z,20.20
2022-10-15T22:18:48.890Z,20.20
2022-10-15T22:20:51.762Z,20.20
2022-10-15T22:22:55.129Z,20.20
2022-10-15T22:24:59.571Z,20.20
2022-10-15T22:27:03.793Z,20.20
2022-10-15T22:29:09.189Z,20.20
2022-10-15T22:31:14.346Z,20.20
2022-10-15T22:33:17.190Z,20.30
2022-10-15T22:35:20.062Z,20.30
2022-10-15T22:37:22.989Z,20.30
2022-10-15T22:39:26.121Z,20.30
2022-10-15T22:41:29.381Z,20.30
2022-10-15T22:43:34.756Z,20.20
2022-10-15T22:45:37.942Z,20.20
2022-10-15T22:47:40.848Z,20.20
2022-10-15T22:49:43.731Z,20.20
2022-10-15T22:51:47.039Z,20.20
2022-10-15T22:53:49.883Z,20.20
2022-10-15T22:55:59.544Z,20.20
2022-10-15T22:58:02.342Z,20.20
2022-10-15T23:00:08.029Z,20.20
2022-10-15T23:02:10.882Z,20.20
2022-10-15T23:04:15.025Z,20.20
2022-10-15T23:06:18.758Z,20.10
2022-10-15T23:08:22.707Z,20.10
2022-10-15T23:10:25.621Z,20.10
2022-10-15T23:12:28.786Z,20.10
2022-10-15T23:14:31.766Z,20.10
2022-10-15T23:16:38.389Z,20.10
2022-10-15T23:18:43.555Z,20.10
2022-10-15T23:20:46.365Z,20.10
2022-10-15T23:22:49.206Z,20.10
2022-10-15T23:24:52.049Z,20.10
2022-10-15T23:26:54.986Z,20.10
2022-10-15T23:28:59.966Z,20.10
2022-10-15T23:31:02.865Z,20.00
2022-10-15T23:33:07.111Z,20.10
2022-10-15T23:35:12.544Z,20.00
2022-10-15T23:37:15.383Z,20.00
2022-10-15T23:39:20.627Z,20.00
2022-10-15T23:41:23.930Z,20.00
2022-10-15T23:43:26.863Z,20.00
2022-10-15T23:45:29.671Z,20.00
2022-10-15T23:47:32.519Z,20.00
2022-10-15T23:49:36.707Z,20.00
2022-10-15T23:51:40.832Z,20.00
2022-10-15T23:55:52.375Z,19.90
2022-10-15T23:57:55.227Z,19.80
2022-10-15T23:59:58.078Z,19.80
